sensor_id;sensor_type;location;lat;lon;timestamp;temperature;humidity
6008;DHT22;3032;49.484;11.112;2024-02-26T00:01:10;5.80;99.90
6008;DHT22;3032;49.484;11.112;2024-02-26T00:03:35;5.80;99.90
6008;DHT22;3032;49.484;11.112;2024-02-26T00:06:02;5.90;99.90
6008;DHT22;3032;49.484;11.112;2024-02-26T00:08:28;5.90;99.90
6008;DHT22;3032;49.484;11.112;2024-02-26T00:10:53;5.70;99.90
6008;DHT22;3032;49.484;11.112;2024-02-26T00:13:19;5.60;99.90
6008;DHT22;3032;49.484;11.112;2024-02-26T00:15:45;5.50;99.90
6008;DHT22;3032;49.484;11.112;2024-02-26T00:18:11;5.40;99.90
6008;DHT22;3032;49.484;11.112;2024-02-26T00:20:37;5.40;99.90
6008;DHT22;3032;49.484;11.112;2024-02-26T00:23:02;5.40;99.90
6008;DHT22;3032;49.484;11.112;2024-02-26T00:25:28;5.30;99.90
6008;DHT22;3032;49.484;11.112;2024-02-26T00:27:53;5.20;99.90
6008;DHT22;3032;49.484;11.112;2024-02-26T00:30:19;5.30;99.90
6008;DHT22;3032;49.484;11.112;2024-02-26T00:32:44;5.10;99.90
6008;DHT22;3032;49.484;11.112;2024-02-26T00:35:10;5.00;99.90
6008;DHT22;3032;49.484;11.112;2024-02-26T00:37:36;5.00;99.90
6008;DHT22;3032;49.484;11.112;2024-02-26T00:40:01;5.00;99.90
6008;DHT22;3032;49.484;11.112;2024-02-26T00:42:27;5.10;99.90
6008;DHT22;3032;49.484;11.112;2024-02-26T00:44:52;5.10;99.90
6008;DHT22;3032;49.484;11.112;2024-02-26T00:47:18;5.10;99.90
6008;DHT22;3032;49.484;11.112;2024-02-26T00:49:43;5.10;99.90
6008;DHT22;3032;49.484;11.112;2024-02-26T00:52:09;5.20;99.90
6008;DHT22;3032;49.484;11.112;2024-02-26T00:54:34;5.20;99.90
6008;DHT22;3032;49.484;11.112;2024-02-26T00:57:00;5.10;99.90
6008;DHT22;3032;49.484;11.112;2024-02-26T00:59:25;4.90;99.90
6008;DHT22;3032;49.484;11.112;2024-02-26T01:01:51;4.90;99.90
6008;DHT22;3032;49.484;11.112;2024-02-26T01:04:16;4.90;99.90
6008;DHT22;3032;49.484;11.112;2024-02-26T01:06:42;5.00;99.90
6008;DHT22;3032;49.484;11.112;2024-02-26T01:09:07;5.00;99.90
6008;DHT22;3032;49.484;11.112;2024-02-26T01:11:33;5.10;99.90
6008;DHT22;3032;49.484;11.112;2024-02-26T01:13:59;5.10;99.90
6008;DHT22;3032;49.484;11.112;2024-02-26T01:16:24;5.00;99.90
6008;DHT22;3032;49.484;11.112;2024-02-26T01:18:50;5.10;99.90
6008;DHT22;3032;49.484;11.112;2024-02-26T01:21:16;5.10;99.90
6008;DHT22;3032;49.484;11.112;2024-02-26T01:23:41;5.30;99.90
6008;DHT22;3032;49.484;11.112;2024-02-26T01:26:07;5.30;99.90
6008;DHT22;3032;49.484;11.112;2024-02-26T01:28:33;5.20;99.90
6008;DHT22;3032;49.484;11.112;2024-02-26T01:30:59;5.20;99.90
6008;DHT22;3032;49.484;11.112;2024-02-26T01:33:26;5.30;99.90
6008;DHT22;3032;49.484;11.112;2024-02-26T01:35:51;5.20;99.90
6008;DHT22;3032;49.484;11.112;2024-02-26T01:38:18;5.20;99.90
6008;DHT22;3032;49.484;11.112;2024-02-26T01:40:44;5.30;99.90
6008;DHT22;3032;49.484;11.112;2024-02-26T01:43:09;5.40;99.90
6008;DHT22;3032;49.484;11.112;2024-02-26T01:45:35;5.30;99.90
6008;DHT22;3032;49.484;11.112;2024-02-26T01:48:00;5.20;99.90
6008;DHT22;3032;49.484;11.112;2024-02-26T01:50:26;5.10;99.90
6008;DHT22;3032;49.484;11.112;2024-02-26T01:52:53;5.00;99.90
6008;DHT22;3032;49.484;11.112;2024-02-26T01:55:20;4.90;99.90
6008;DHT22;3032;49.484;11.112;2024-02-26T01:57:49;4.90;99.90
6008;DHT22;3032;49.484;11.112;2024-02-26T02:00:18;4.60;99.90
6008;DHT22;3032;49.484;11.112;2024-02-26T02:02:45;4.50;99.90
6008;DHT22;3032;49.484;11.112;2024-02-26T02:05:15;4.30;99.90
6008;DHT22;3032;49.484;11.112;2024-02-26T02:07:43;4.30;99.90
6008;DHT22;3032;49.484;11.112;2024-02-26T02:10:09;4.30;99.90
6008;DHT22;3032;49.484;11.112;2024-02-26T02:12:35;4.30;99.90
6008;DHT22;3032;49.484;11.112;2024-02-26T02:15:04;4.30;99.90
6008;DHT22;3032;49.484;11.112;2024-02-26T02:17:31;4.50;99.90
6008;DHT22;3032;49.484;11.112;2024-02-26T02:19:57;4.50;99.90
6008;DHT22;3032;49.484;11.112;2024-02-26T02:22:22;4.50;99.90
6008;DHT22;3032;49.484;11.112;2024-02-26T02:24:49;4.50;99.90
6008;DHT22;3032;49.484;11.112;2024-02-26T02:27:15;4.50;99.90
6008;DHT22;3032;49.484;11.112;2024-02-26T02:29:41;4.50;99.90
6008;DHT22;3032;49.484;11.112;2024-02-26T02:32:07;4.50;99.90
6008;DHT22;3032;49.484;11.112;2024-02-26T02:34:33;4.60;99.90
6008;DHT22;3032;49.484;11.112;2024-02-26T02:36:59;4.60;99.90
6008;DHT22;3032;49.484;11.112;2024-02-26T02:39:25;4.50;99.90
6008;DHT22;3032;49.484;11.112;2024-02-26T02:41:50;4.50;99.90
6008;DHT22;3032;49.484;11.112;2024-02-26T02:44:16;4.50;99.90
6008;DHT22;3032;49.484;11.112;2024-02-26T02:46:42;4.60;99.90
6008;DHT22;3032;49.484;11.112;2024-02-26T02:49:10;4.80;99.90
6008;DHT22;3032;49.484;11.112;2024-02-26T02:51:36;5.00;99.90
6008;DHT22;3032;49.484;11.112;2024-02-26T02:54:02;5.20;99.90
6008;DHT22;3032;49.484;11.112;2024-02-26T02:56:27;5.30;99.90
6008;DHT22;3032;49.484;11.112;2024-02-26T02:58:53;5.50;99.90
6008;DHT22;3032;49.484;11.112;2024-02-26T03:01:19;5.50;99.90
6008;DHT22;3032;49.484;11.112;2024-02-26T03:03:44;5.70;99.90
6008;DHT22;3032;49.484;11.112;2024-02-26T03:06:10;5.70;99.90
6008;DHT22;3032;49.484;11.112;2024-02-26T03:08:35;5.90;99.90
6008;DHT22;3032;49.484;11.112;2024-02-26T03:11:04;6.10;99.90
6008;DHT22;3032;49.484;11.112;2024-02-26T03:13:29;6.10;99.90
6008;DHT22;3032;49.484;11.112;2024-02-26T03:15:55;6.10;99.90
6008;DHT22;3032;49.484;11.112;2024-02-26T03:18:20;6.10;99.90
6008;DHT22;3032;49.484;11.112;2024-02-26T03:20:47;5.90;99.90
6008;DHT22;3032;49.484;11.112;2024-02-26T03:23:12;5.70;99.90
6008;DHT22;3032;49.484;11.112;2024-02-26T03:25:41;5.70;99.90
6008;DHT22;3032;49.484;11.112;2024-02-26T03:28:07;5.50;99.90
6008;DHT22;3032;49.484;11.112;2024-02-26T03:30:32;5.40;99.90
6008;DHT22;3032;49.484;11.112;2024-02-26T03:32:58;5.40;99.90
6008;DHT22;3032;49.484;11.112;2024-02-26T03:35:23;5.50;99.90
6008;DHT22;3032;49.484;11.112;2024-02-26T03:37:49;5.50;99.90
6008;DHT22;3032;49.484;11.112;2024-02-26T03:40:16;5.60;99.90
6008;DHT22;3032;49.484;11.112;2024-02-26T03:42:43;5.80;99.90
6008;DHT22;3032;49.484;11.112;2024-02-26T03:45:09;5.80;99.90
6008;DHT22;3032;49.484;11.112;2024-02-26T03:47:35;5.80;99.90
6008;DHT22;3032;49.484;11.112;2024-02-26T03:50:01;6.10;99.90
6008;DHT22;3032;49.484;11.112;2024-02-26T03:52:26;6.30;99.90
6008;DHT22;3032;49.484;11.112;2024-02-26T03:54:52;6.50;99.90
6008;DHT22;3032;49.484;11.112;2024-02-26T03:57:17;6.60;99.90
6008;DHT22;3032;49.484;11.112;2024-02-26T03:59:43;6.90;99.90
6008;DHT22;3032;49.484;11.112;2024-02-26T04:02:08;6.90;99.90
6008;DHT22;3032;49.484;11.112;2024-02-26T04:04:35;7.00;99.90
6008;DHT22;3032;49.484;11.112;2024-02-26T04:07:00;6.80;99.90
6008;DHT22;3032;49.484;11.112;2024-02-26T04:09:26;6.70;99.90
6008;DHT22;3032;49.484;11.112;2024-02-26T04:11:51;6.50;99.90
6008;DHT22;3032;49.484;11.112;2024-02-26T04:14:17;6.60;99.90
6008;DHT22;3032;49.484;11.112;2024-02-26T04:16:42;6.80;99.90
6008;DHT22;3032;49.484;11.112;2024-02-26T04:19:08;7.00;99.90
6008;DHT22;3032;49.484;11.112;2024-02-26T04:21:34;7.10;99.90
6008;DHT22;3032;49.484;11.112;2024-02-26T04:24:00;7.30;99.90
6008;DHT22;3032;49.484;11.112;2024-02-26T04:26:28;7.40;99.90
6008;DHT22;3032;49.484;11.112;2024-02-26T04:28:54;7.20;99.90
6008;DHT22;3032;49.484;11.112;2024-02-26T04:31:19;6.90;99.90
6008;DHT22;3032;49.484;11.112;2024-02-26T04:33:45;6.60;99.90
6008;DHT22;3032;49.484;11.112;2024-02-26T04:36:14;6.50;99.90
6008;DHT22;3032;49.484;11.112;2024-02-26T04:38:42;6.40;99.90
6008;DHT22;3032;49.484;11.112;2024-02-26T04:41:07;6.50;99.90
6008;DHT22;3032;49.484;11.112;2024-02-26T04:43:33;6.50;99.90
6008;DHT22;3032;49.484;11.112;2024-02-26T04:45:58;6.30;99.90
6008;DHT22;3032;49.484;11.112;2024-02-26T04:48:24;6.20;99.90
6008;DHT22;3032;49.484;11.112;2024-02-26T04:50:49;5.90;99.90
6008;DHT22;3032;49.484;11.112;2024-02-26T04:53:15;5.60;99.90
6008;DHT22;3032;49.484;11.112;2024-02-26T04:55:40;5.40;99.90
6008;DHT22;3032;49.484;11.112;2024-02-26T04:58:06;5.30;99.90
6008;DHT22;3032;49.484;11.112;2024-02-26T05:00:32;5.10;99.90
6008;DHT22;3032;49.484;11.112;2024-02-26T05:02:57;5.00;99.90
6008;DHT22;3032;49.484;11.112;2024-02-26T05:05:23;5.00;99.90
6008;DHT22;3032;49.484;11.112;2024-02-26T05:07:48;4.90;99.90
6008;DHT22;3032;49.484;11.112;2024-02-26T05:10:14;4.90;99.90
6008;DHT22;3032;49.484;11.112;2024-02-26T05:12:39;4.90;99.90
6008;DHT22;3032;49.484;11.112;2024-02-26T05:15:08;4.80;99.90
6008;DHT22;3032;49.484;11.112;2024-02-26T05:17:34;5.00;99.90
6008;DHT22;3032;49.484;11.112;2024-02-26T05:19:59;4.90;99.90
6008;DHT22;3032;49.484;11.112;2024-02-26T05:22:25;4.80;99.90
6008;DHT22;3032;49.484;11.112;2024-02-26T05:24:50;4.80;99.90
6008;DHT22;3032;49.484;11.112;2024-02-26T05:27:16;4.70;99.90
6008;DHT22;3032;49.484;11.112;2024-02-26T05:29:42;5.00;99.90
6008;DHT22;3032;49.484;11.112;2024-02-26T05:32:08;4.70;99.90
6008;DHT22;3032;49.484;11.112;2024-02-26T05:34:33;4.60;99.90
6008;DHT22;3032;49.484;11.112;2024-02-26T05:36:59;4.70;99.90
6008;DHT22;3032;49.484;11.112;2024-02-26T05:39:24;4.80;99.90
6008;DHT22;3032;49.484;11.112;2024-02-26T05:41:50;4.80;99.90
6008;DHT22;3032;49.484;11.112;2024-02-26T05:44:15;4.80;99.90
6008;DHT22;3032;49.484;11.112;2024-02-26T05:46:42;5.00;99.90
6008;DHT22;3032;49.484;11.112;2024-02-26T05:49:07;5.30;99.90
6008;DHT22;3032;49.484;11.112;2024-02-26T05:51:33;5.60;99.90
6008;DHT22;3032;49.484;11.112;2024-02-26T05:53:58;5.80;99.90
6008;DHT22;3032;49.484;11.112;2024-02-26T05:56:24;5.90;99.90
6008;DHT22;3032;49.484;11.112;2024-02-26T05:58:50;6.00;99.90
6008;DHT22;3032;49.484;11.112;2024-02-26T06:01:16;6.10;99.90
6008;DHT22;3032;49.484;11.112;2024-02-26T06:03:43;6.20;99.90
6008;DHT22;3032;49.484;11.112;2024-02-26T06:06:09;6.20;99.90
6008;DHT22;3032;49.484;11.112;2024-02-26T06:08:35;6.30;99.90
6008;DHT22;3032;49.484;11.112;2024-02-26T06:11:05;6.50;99.90
6008;DHT22;3032;49.484;11.112;2024-02-26T06:13:31;6.80;99.90
6008;DHT22;3032;49.484;11.112;2024-02-26T06:15:56;6.00;99.90
6008;DHT22;3032;49.484;11.112;2024-02-26T06:18:22;5.90;99.90
6008;DHT22;3032;49.484;11.112;2024-02-26T06:20:47;5.90;99.90
6008;DHT22;3032;49.484;11.112;2024-02-26T06:23:13;5.80;99.90
6008;DHT22;3032;49.484;11.112;2024-02-26T06:25:39;5.70;99.90
6008;DHT22;3032;49.484;11.112;2024-02-26T06:28:04;5.60;99.90
6008;DHT22;3032;49.484;11.112;2024-02-26T06:30:30;5.50;99.90
6008;DHT22;3032;49.484;11.112;2024-02-26T06:32:55;5.50;99.90
6008;DHT22;3032;49.484;11.112;2024-02-26T06:35:21;5.60;99.90
6008;DHT22;3032;49.484;11.112;2024-02-26T06:37:46;5.60;99.90
6008;DHT22;3032;49.484;11.112;2024-02-26T06:40:12;5.80;99.90
6008;DHT22;3032;49.484;11.112;2024-02-26T06:42:38;6.00;99.90
6008;DHT22;3032;49.484;11.112;2024-02-26T06:45:04;6.20;99.90
6008;DHT22;3032;49.484;11.112;2024-02-26T06:47:30;6.20;99.90
6008;DHT22;3032;49.484;11.112;2024-02-26T06:49:55;6.50;99.90
6008;DHT22;3032;49.484;11.112;2024-02-26T06:52:23;6.50;99.90
6008;DHT22;3032;49.484;11.112;2024-02-26T06:54:50;6.50;99.90
6008;DHT22;3032;49.484;11.112;2024-02-26T06:57:21;6.60;99.90
6008;DHT22;3032;49.484;11.112;2024-02-26T06:59:46;6.90;99.90
6008;DHT22;3032;49.484;11.112;2024-02-26T07:02:13;6.80;99.90
6008;DHT22;3032;49.484;11.112;2024-02-26T07:04:39;7.10;99.90
6008;DHT22;3032;49.484;11.112;2024-02-26T07:07:06;7.20;99.90
6008;DHT22;3032;49.484;11.112;2024-02-26T07:09:32;7.20;99.90
6008;DHT22;3032;49.484;11.112;2024-02-26T07:11:57;7.40;99.90
6008;DHT22;3032;49.484;11.112;2024-02-26T07:14:23;7.40;99.90
6008;DHT22;3032;49.484;11.112;2024-02-26T07:16:50;7.60;99.90
6008;DHT22;3032;49.484;11.112;2024-02-26T07:19:15;7.50;99.90
6008;DHT22;3032;49.484;11.112;2024-02-26T07:21:41;7.30;99.90
6008;DHT22;3032;49.484;11.112;2024-02-26T07:24:06;7.00;99.90
6008;DHT22;3032;49.484;11.112;2024-02-26T07:26:32;6.80;99.90
6008;DHT22;3032;49.484;11.112;2024-02-26T07:28:58;6.60;99.90
6008;DHT22;3032;49.484;11.112;2024-02-26T07:31:23;6.30;99.90
6008;DHT22;3032;49.484;11.112;2024-02-26T07:33:49;6.20;99.90
6008;DHT22;3032;49.484;11.112;2024-02-26T07:36:14;6.30;99.90
6008;DHT22;3032;49.484;11.112;2024-02-26T07:38:40;6.60;99.90
6008;DHT22;3032;49.484;11.112;2024-02-26T07:41:06;7.10;99.90
6008;DHT22;3032;49.484;11.112;2024-02-26T07:43:31;7.30;99.90
6008;DHT22;3032;49.484;11.112;2024-02-26T07:45:57;7.60;99.90
6008;DHT22;3032;49.484;11.112;2024-02-26T07:48:23;7.60;99.90
6008;DHT22;3032;49.484;11.112;2024-02-26T07:50:48;7.40;99.90
6008;DHT22;3032;49.484;11.112;2024-02-26T07:53:14;7.60;99.90
6008;DHT22;3032;49.484;11.112;2024-02-26T07:55:40;7.60;99.90
6008;DHT22;3032;49.484;11.112;2024-02-26T07:58:05;7.60;99.90
6008;DHT22;3032;49.484;11.112;2024-02-26T08:00:31;7.80;99.90
6008;DHT22;3032;49.484;11.112;2024-02-26T08:02:56;7.00;99.90
6008;DHT22;3032;49.484;11.112;2024-02-26T08:05:22;7.10;99.90
6008;DHT22;3032;49.484;11.112;2024-02-26T08:07:47;7.20;99.90
6008;DHT22;3032;49.484;11.112;2024-02-26T08:10:13;7.20;99.90
6008;DHT22;3032;49.484;11.112;2024-02-26T08:12:39;7.10;99.90
6008;DHT22;3032;49.484;11.112;2024-02-26T08:15:05;6.90;99.90
6008;DHT22;3032;49.484;11.112;2024-02-26T08:17:31;6.90;99.90
6008;DHT22;3032;49.484;11.112;2024-02-26T08:19:58;6.90;99.90
6008;DHT22;3032;49.484;11.112;2024-02-26T08:22:24;7.10;99.90
6008;DHT22;3032;49.484;11.112;2024-02-26T08:24:49;7.20;99.90
6008;DHT22;3032;49.484;11.112;2024-02-26T08:27:15;7.60;99.90
6008;DHT22;3032;49.484;11.112;2024-02-26T08:29:41;8.00;99.90
6008;DHT22;3032;49.484;11.112;2024-02-26T08:32:06;7.90;99.90
6008;DHT22;3032;49.484;11.112;2024-02-26T08:34:32;7.90;99.90
6008;DHT22;3032;49.484;11.112;2024-02-26T08:36:58;7.80;99.90
6008;DHT22;3032;49.484;11.112;2024-02-26T08:39:24;8.00;99.90
6008;DHT22;3032;49.484;11.112;2024-02-26T08:41:51;8.20;99.90
6008;DHT22;3032;49.484;11.112;2024-02-26T08:44:17;8.70;99.90
6008;DHT22;3032;49.484;11.112;2024-02-26T08:46:43;9.00;99.90
6008;DHT22;3032;49.484;11.112;2024-02-26T08:49:08;8.90;99.90
6008;DHT22;3032;49.484;11.112;2024-02-26T08:51:34;9.00;99.90
6008;DHT22;3032;49.484;11.112;2024-02-26T08:53:59;9.20;99.90
6008;DHT22;3032;49.484;11.112;2024-02-26T08:56:28;9.30;99.90
6008;DHT22;3032;49.484;11.112;2024-02-26T08:58:54;8.80;99.90
6008;DHT22;3032;49.484;11.112;2024-02-26T09:01:22;8.60;99.90
6008;DHT22;3032;49.484;11.112;2024-02-26T09:03:48;8.50;99.90
6008;DHT22;3032;49.484;11.112;2024-02-26T09:06:15;9.20;99.90
6008;DHT22;3032;49.484;11.112;2024-02-26T09:08:40;9.10;99.90
6008;DHT22;3032;49.484;11.112;2024-02-26T09:11:06;9.50;99.90
6008;DHT22;3032;49.484;11.112;2024-02-26T09:13:32;9.70;99.90
6008;DHT22;3032;49.484;11.112;2024-02-26T09:15:57;9.80;99.90
6008;DHT22;3032;49.484;11.112;2024-02-26T09:18:24;9.80;99.90
6008;DHT22;3032;49.484;11.112;2024-02-26T09:20:50;10.20;99.90
6008;DHT22;3032;49.484;11.112;2024-02-26T09:23:16;10.70;99.90
6008;DHT22;3032;49.484;11.112;2024-02-26T09:25:41;10.90;99.90
6008;DHT22;3032;49.484;11.112;2024-02-26T09:28:07;11.50;99.90
6008;DHT22;3032;49.484;11.112;2024-02-26T09:30:33;12.30;99.90
6008;DHT22;3032;49.484;11.112;2024-02-26T09:32:58;12.60;99.00
6008;DHT22;3032;49.484;11.112;2024-02-26T09:35:24;13.20;98.30
6008;DHT22;3032;49.484;11.112;2024-02-26T09:37:49;13.30;96.40
6008;DHT22;3032;49.484;11.112;2024-02-26T09:40:15;12.70;97.10
6008;DHT22;3032;49.484;11.112;2024-02-26T09:42:45;11.90;97.70
6008;DHT22;3032;49.484;11.112;2024-02-26T09:45:21;11.90;97.30
6008;DHT22;3032;49.484;11.112;2024-02-26T09:47:48;11.80;97.40
6008;DHT22;3032;49.484;11.112;2024-02-26T09:50:17;11.90;98.20
6008;DHT22;3032;49.484;11.112;2024-02-26T09:55:18;11.00;97.90
6008;DHT22;3032;49.484;11.112;2024-02-26T09:57:46;10.80;98.70
6008;DHT22;3032;49.484;11.112;2024-02-26T10:00:17;10.30;99.80
6008;DHT22;3032;49.484;11.112;2024-02-26T10:02:45;10.50;99.70
6008;DHT22;3032;49.484;11.112;2024-02-26T10:05:14;10.60;99.60
6008;DHT22;3032;49.484;11.112;2024-02-26T10:07:40;11.00;99.90
6008;DHT22;3032;49.484;11.112;2024-02-26T10:10:08;10.80;99.00
6008;DHT22;3032;49.484;11.112;2024-02-26T10:12:34;10.60;99.50
6008;DHT22;3032;49.484;11.112;2024-02-26T10:14:59;10.70;99.20
6008;DHT22;3032;49.484;11.112;2024-02-26T10:17:25;10.90;99.00
6008;DHT22;3032;49.484;11.112;2024-02-26T10:19:51;10.70;98.60
6008;DHT22;3032;49.484;11.112;2024-02-26T10:22:22;10.40;99.20
6008;DHT22;3032;49.484;11.112;2024-02-26T10:24:47;10.20;99.90
6008;DHT22;3032;49.484;11.112;2024-02-26T10:27:13;10.60;99.90
6008;DHT22;3032;49.484;11.112;2024-02-26T10:29:40;11.30;99.10
6008;DHT22;3032;49.484;11.112;2024-02-26T10:32:08;12.30;98.40
6008;DHT22;3032;49.484;11.112;2024-02-26T10:34:35;12.10;97.40
6008;DHT22;3032;49.484;11.112;2024-02-26T10:37:01;12.10;97.20
6008;DHT22;3032;49.484;11.112;2024-02-26T10:39:28;12.00;96.80
6008;DHT22;3032;49.484;11.112;2024-02-26T10:41:53;12.20;97.60
6008;DHT22;3032;49.484;11.112;2024-02-26T10:44:19;12.60;96.60
6008;DHT22;3032;49.484;11.112;2024-02-26T10:46:46;12.50;96.40
6008;DHT22;3032;49.484;11.112;2024-02-26T10:49:16;12.80;95.60
6008;DHT22;3032;49.484;11.112;2024-02-26T10:51:47;12.80;95.80
6008;DHT22;3032;49.484;11.112;2024-02-26T10:54:17;12.90;95.90
6008;DHT22;3032;49.484;11.112;2024-02-26T10:56:44;13.60;94.60
6008;DHT22;3032;49.484;11.112;2024-02-26T10:59:12;14.00;93.70
6008;DHT22;3032;49.484;11.112;2024-02-26T11:01:39;13.80;93.70
6008;DHT22;3032;49.484;11.112;2024-02-26T11:04:06;13.60;93.80
6008;DHT22;3032;49.484;11.112;2024-02-26T11:06:33;14.20;94.10
6008;DHT22;3032;49.484;11.112;2024-02-26T11:09:01;14.30;92.70
6008;DHT22;3032;49.484;11.112;2024-02-26T11:11:28;14.20;92.80
6008;DHT22;3032;49.484;11.112;2024-02-26T11:13:56;15.10;91.80
6008;DHT22;3032;49.484;11.112;2024-02-26T11:16:23;15.60;90.40
6008;DHT22;3032;49.484;11.112;2024-02-26T11:18:50;15.80;89.40
6008;DHT22;3032;49.484;11.112;2024-02-26T11:21:17;16.40;87.60
6008;DHT22;3032;49.484;11.112;2024-02-26T11:23:53;16.90;86.40
6008;DHT22;3032;49.484;11.112;2024-02-26T11:26:19;18.10;85.70
6008;DHT22;3032;49.484;11.112;2024-02-26T11:28:45;19.00;80.70
6008;DHT22;3032;49.484;11.112;2024-02-26T11:31:12;19.00;78.00
6008;DHT22;3032;49.484;11.112;2024-02-26T11:33:38;19.30;76.00
6008;DHT22;3032;49.484;11.112;2024-02-26T11:36:12;19.00;74.40
6008;DHT22;3032;49.484;11.112;2024-02-26T11:38:39;19.40;72.30
6008;DHT22;3032;49.484;11.112;2024-02-26T11:41:06;19.20;72.50
6008;DHT22;3032;49.484;11.112;2024-02-26T11:43:58;18.70;72.70
6008;DHT22;3032;49.484;11.112;2024-02-26T11:49:00;19.10;73.20
6008;DHT22;3032;49.484;11.112;2024-02-26T11:51:27;19.80;71.10
6008;DHT22;3032;49.484;11.112;2024-02-26T11:53:53;21.10;69.70
6008;DHT22;3032;49.484;11.112;2024-02-26T11:58:45;18.50;70.50
6008;DHT22;3032;49.484;11.112;2024-02-26T12:01:36;18.70;71.00
6008;DHT22;3032;49.484;11.112;2024-02-26T12:04:04;18.10;68.60
6008;DHT22;3032;49.484;11.112;2024-02-26T12:06:30;18.40;72.20
6008;DHT22;3032;49.484;11.112;2024-02-26T12:08:56;18.70;68.20
6008;DHT22;3032;49.484;11.112;2024-02-26T12:11:21;19.10;67.60
6008;DHT22;3032;49.484;11.112;2024-02-26T12:13:48;18.80;65.60
6008;DHT22;3032;49.484;11.112;2024-02-26T12:16:39;18.70;66.30
6008;DHT22;3032;49.484;11.112;2024-02-26T12:19:09;18.10;68.50
6008;DHT22;3032;49.484;11.112;2024-02-26T12:21:36;18.20;70.60
6008;DHT22;3032;49.484;11.112;2024-02-26T12:24:12;18.30;69.50
6008;DHT22;3032;49.484;11.112;2024-02-26T12:26:39;18.10;66.60
6008;DHT22;3032;49.484;11.112;2024-02-26T12:29:04;18.40;67.90
6008;DHT22;3032;49.484;11.112;2024-02-26T12:31:31;18.30;68.70
6008;DHT22;3032;49.484;11.112;2024-02-26T12:33:57;17.80;67.30
6008;DHT22;3032;49.484;11.112;2024-02-26T12:36:22;16.60;68.20
6008;DHT22;3032;49.484;11.112;2024-02-26T12:38:51;16.70;68.20
6008;DHT22;3032;49.484;11.112;2024-02-26T12:41:17;16.00;68.00
6008;DHT22;3032;49.484;11.112;2024-02-26T12:43:43;15.60;71.70
6008;DHT22;3032;49.484;11.112;2024-02-26T12:46:09;15.70;73.90
6008;DHT22;3032;49.484;11.112;2024-02-26T12:48:35;15.90;72.70
6008;DHT22;3032;49.484;11.112;2024-02-26T12:51:00;16.40;73.10
6008;DHT22;3032;49.484;11.112;2024-02-26T12:53:26;16.30;74.20
6008;DHT22;3032;49.484;11.112;2024-02-26T12:55:54;16.40;73.90
6008;DHT22;3032;49.484;11.112;2024-02-26T12:58:20;16.20;72.70
6008;DHT22;3032;49.484;11.112;2024-02-26T13:00:51;16.10;74.40
6008;DHT22;3032;49.484;11.112;2024-02-26T13:03:16;16.70;71.20
6008;DHT22;3032;49.484;11.112;2024-02-26T13:05:42;17.50;69.70
6008;DHT22;3032;49.484;11.112;2024-02-26T13:08:08;16.50;73.50
6008;DHT22;3032;49.484;11.112;2024-02-26T13:10:34;16.10;70.10
6008;DHT22;3032;49.484;11.112;2024-02-26T13:13:02;16.30;68.10
6008;DHT22;3032;49.484;11.112;2024-02-26T13:15:28;16.60;65.90
6008;DHT22;3032;49.484;11.112;2024-02-26T13:17:53;16.00;67.80
6008;DHT22;3032;49.484;11.112;2024-02-26T13:20:28;17.20;67.60
6008;DHT22;3032;49.484;11.112;2024-02-26T13:23:11;17.40;66.40
6008;DHT22;3032;49.484;11.112;2024-02-26T13:25:37;17.20;68.40
6008;DHT22;3032;49.484;11.112;2024-02-26T13:30:34;16.70;66.50
6008;DHT22;3032;49.484;11.112;2024-02-26T13:33:12;16.70;65.70
6008;DHT22;3032;49.484;11.112;2024-02-26T13:35:41;16.30;67.10
6008;DHT22;3032;49.484;11.112;2024-02-26T13:38:06;16.40;65.20
6008;DHT22;3032;49.484;11.112;2024-02-26T13:40:32;17.20;66.80
6008;DHT22;3032;49.484;11.112;2024-02-26T13:43:00;17.50;65.30
6008;DHT22;3032;49.484;11.112;2024-02-26T13:45:25;18.00;63.50
6008;DHT22;3032;49.484;11.112;2024-02-26T13:47:51;18.00;61.10
6008;DHT22;3032;49.484;11.112;2024-02-26T13:50:16;17.20;62.80
6008;DHT22;3032;49.484;11.112;2024-02-26T13:52:46;16.90;61.70
6008;DHT22;3032;49.484;11.112;2024-02-26T13:55:12;16.70;61.20
6008;DHT22;3032;49.484;11.112;2024-02-26T13:57:39;16.40;59.80
6008;DHT22;3032;49.484;11.112;2024-02-26T14:00:06;16.30;59.70
6008;DHT22;3032;49.484;11.112;2024-02-26T14:02:33;16.10;59.70
6008;DHT22;3032;49.484;11.112;2024-02-26T14:05:02;15.80;58.60
6008;DHT22;3032;49.484;11.112;2024-02-26T14:07:29;15.60;60.20
6008;DHT22;3032;49.484;11.112;2024-02-26T14:09:57;15.60;60.20
6008;DHT22;3032;49.484;11.112;2024-02-26T14:12:23;15.40;59.90
6008;DHT22;3032;49.484;11.112;2024-02-26T14:14:48;15.20;63.10
6008;DHT22;3032;49.484;11.112;2024-02-26T14:17:14;14.80;68.20
6008;DHT22;3032;49.484;11.112;2024-02-26T14:19:41;14.90;69.10
6008;DHT22;3032;49.484;11.112;2024-02-26T14:22:11;15.00;66.20
6008;DHT22;3032;49.484;11.112;2024-02-26T14:24:37;14.80;66.30
6008;DHT22;3032;49.484;11.112;2024-02-26T14:27:02;14.90;70.30
6008;DHT22;3032;49.484;11.112;2024-02-26T14:29:29;14.60;72.20
6008;DHT22;3032;49.484;11.112;2024-02-26T14:31:55;14.70;71.10
6008;DHT22;3032;49.484;11.112;2024-02-26T14:34:22;14.70;71.20
6008;DHT22;3032;49.484;11.112;2024-02-26T14:36:47;14.90;72.20
6008;DHT22;3032;49.484;11.112;2024-02-26T14:39:13;14.90;70.30
6008;DHT22;3032;49.484;11.112;2024-02-26T14:41:39;14.20;71.40
6008;DHT22;3032;49.484;11.112;2024-02-26T14:44:05;14.00;73.10
6008;DHT22;3032;49.484;11.112;2024-02-26T14:46:30;13.90;73.10
6008;DHT22;3032;49.484;11.112;2024-02-26T14:48:56;13.60;74.00
6008;DHT22;3032;49.484;11.112;2024-02-26T14:51:23;13.80;74.90
6008;DHT22;3032;49.484;11.112;2024-02-26T14:53:48;13.30;74.60
6008;DHT22;3032;49.484;11.112;2024-02-26T14:56:14;13.10;75.10
6008;DHT22;3032;49.484;11.112;2024-02-26T14:58:40;13.30;76.30
6008;DHT22;3032;49.484;11.112;2024-02-26T15:01:06;13.30;75.60
6008;DHT22;3032;49.484;11.112;2024-02-26T15:03:32;14.00;75.00
6008;DHT22;3032;49.484;11.112;2024-02-26T15:05:58;14.10;74.40
6008;DHT22;3032;49.484;11.112;2024-02-26T15:08:24;14.50;76.50
6008;DHT22;3032;49.484;11.112;2024-02-26T15:10:49;13.60;74.80
6008;DHT22;3032;49.484;11.112;2024-02-26T15:13:15;13.30;75.70
6008;DHT22;3032;49.484;11.112;2024-02-26T15:15:43;13.50;77.30
6008;DHT22;3032;49.484;11.112;2024-02-26T15:18:09;13.50;74.60
6008;DHT22;3032;49.484;11.112;2024-02-26T15:20:37;13.50;75.20
6008;DHT22;3032;49.484;11.112;2024-02-26T15:23:04;13.60;75.10
6008;DHT22;3032;49.484;11.112;2024-02-26T15:25:29;13.40;75.80
6008;DHT22;3032;49.484;11.112;2024-02-26T15:27:55;13.30;76.60
6008;DHT22;3032;49.484;11.112;2024-02-26T15:30:21;13.00;76.30
6008;DHT22;3032;49.484;11.112;2024-02-26T15:32:46;12.90;78.20
6008;DHT22;3032;49.484;11.112;2024-02-26T15:35:12;13.00;77.30
6008;DHT22;3032;49.484;11.112;2024-02-26T15:37:37;13.30;78.50
6008;DHT22;3032;49.484;11.112;2024-02-26T15:40:04;13.60;78.20
6008;DHT22;3032;49.484;11.112;2024-02-26T15:42:32;13.20;77.90
6008;DHT22;3032;49.484;11.112;2024-02-26T15:44:58;13.60;78.80
6008;DHT22;3032;49.484;11.112;2024-02-26T15:47:23;13.20;78.00
6008;DHT22;3032;49.484;11.112;2024-02-26T15:49:49;13.10;78.70
6008;DHT22;3032;49.484;11.112;2024-02-26T15:52:14;13.30;79.40
6008;DHT22;3032;49.484;11.112;2024-02-26T15:54:40;13.70;78.60
6008;DHT22;3032;49.484;11.112;2024-02-26T15:57:07;13.70;79.70
6008;DHT22;3032;49.484;11.112;2024-02-26T15:59:35;13.00;79.60